createdAt,value
2022-11-29T00:02:02.703Z,18.00
2022-11-29T00:04:30.332Z,18.25
2022-11-29T00:06:57.667Z,18.38
2022-11-29T00:09:24.983Z,18.48
2022-11-29T00:12:10.827Z,19.23
2022-11-29T00:14:38.296Z,18.83
2022-11-29T00:17:06.011Z,18.95
2022-11-29T00:19:35.676Z,18.30
2022-11-29T00:22:04.059Z,18.48
2022-11-29T00:24:32.491Z,18.80
2022-11-29T00:27:00.489Z,18.33
2022-11-29T00:32:13.532Z,19.75
2022-11-29T00:34:41.069Z,18.58
2022-11-29T00:37:08.867Z,18.58
2022-11-29T00:39:36.929Z,18.48
2022-11-29T00:42:05.707Z,19.05
2022-11-29T00:44:33.359Z,19.05
2022-11-29T00:47:00.859Z,18.25
2022-11-29T00:49:28.264Z,17.95
2022-11-29T00:51:55.877Z,19.55
2022-11-29T00:54:23.333Z,19.30
2022-11-29T00:56:50.745Z,18.00
2022-11-29T00:59:18.201Z,18.23
2022-11-29T01:01:45.655Z,18.58
2022-11-29T01:04:13.137Z,18.48
2022-11-29T01:06:40.782Z,17.80
2022-11-29T01:09:08.265Z,18.08
2022-11-29T01:11:35.870Z,17.92
2022-11-29T01:14:04.275Z,17.77
2022-11-29T01:16:32.804Z,18.98
2022-11-29T01:19:00.895Z,18.80
2022-11-29T01:21:28.457Z,18.23
2022-11-29T01:23:56.349Z,17.88
2022-11-29T01:26:27.636Z,19.27
2022-11-29T01:28:56.736Z,18.00
2022-11-29T01:31:27.757Z,18.52
2022-11-29T01:33:57.282Z,19.00
2022-11-29T01:36:25.317Z,17.60
2022-11-29T01:38:52.948Z,19.02
2022-11-29T01:41:23.856Z,17.95
2022-11-29T01:43:55.919Z,18.63
2022-11-29T01:46:24.340Z,18.45
2022-11-29T01:48:55.313Z,17.88
2022-11-29T01:51:23.007Z,19.48
2022-11-29T01:53:50.556Z,18.30
2022-11-29T01:56:18.144Z,17.10
2022-11-29T01:58:45.766Z,17.33
2022-11-29T02:01:14.239Z,18.48
2022-11-29T02:03:41.987Z,17.38
2022-11-29T02:06:09.643Z,17.50
2022-11-29T02:08:40.691Z,17.33
2022-11-29T02:11:36.746Z,17.63
2022-11-29T02:14:56.810Z,17.77
2022-11-29T02:17:41.913Z,17.30
2022-11-29T02:20:27.763Z,17.08
2022-11-29T02:23:04.104Z,16.92
2022-11-29T02:25:46.580Z,17.42
2022-11-29T02:28:27.247Z,16.05
2022-11-29T02:31:02.946Z,16.45
2022-11-29T02:33:39.244Z,16.60
2022-11-29T02:36:30.036Z,16.30
2022-11-29T02:39:52.296Z,15.75
2022-11-29T02:42:25.501Z,15.13
2022-11-29T02:45:19.740Z,16.33
2022-11-29T02:48:05.224Z,15.35
2022-11-29T02:50:59.724Z,15.98
2022-11-29T02:53:35.412Z,14.82
2022-11-29T02:56:40.405Z,14.60
2022-11-29T02:59:26.352Z,15.07
2022-11-29T03:02:27.254Z,14.30
2022-11-29T03:05:25.117Z,14.00
2022-11-29T03:10:57.477Z,13.20
2022-11-29T03:13:46.583Z,13.93
2022-11-29T03:16:43.647Z,13.32
2022-11-29T03:19:23.461Z,13.35
2022-11-29T03:22:18.871Z,12.98
2022-11-29T03:24:55.180Z,13.55
2022-11-29T03:27:31.050Z,13.63
2022-11-29T03:30:05.685Z,13.30
2022-11-29T03:32:45.632Z,12.75
2022-11-29T03:35:22.628Z,12.95
2022-11-29T03:38:16.849Z,12.18
2022-11-29T03:41:15.010Z,12.40
2022-11-29T03:44:03.345Z,11.98
2022-11-29T03:46:38.236Z,12.02
2022-11-29T03:49:28.638Z,11.38
2022-11-29T03:51:58.941Z,12.10
2022-11-29T03:54:35.183Z,11.35
2022-11-29T03:57:02.973Z,11.68
2022-11-29T03:59:32.983Z,10.95
2022-11-29T04:02:41.761Z,11.23
2022-11-29T04:05:29.436Z,10.95
2022-11-29T04:08:11.795Z,10.77
2022-11-29T04:11:08.307Z,10.68
2022-11-29T04:14:04.471Z,10.30
2022-11-29T04:17:02.979Z,10.48
2022-11-29T04:19:48.525Z,10.35
2022-11-29T04:22:32.714Z,10.10
2022-11-29T04:25:15.572Z,10.20
2022-11-29T04:28:09.175Z,10.07
2022-11-29T04:31:14.735Z,9.57
2022-11-29T04:34:17.966Z,9.50
2022-11-29T04:37:09.064Z,9.25
2022-11-29T04:40:01.081Z,9.15
2022-11-29T04:42:55.921Z,9.15
2022-11-29T04:46:01.376Z,8.75
2022-11-29T04:49:05.848Z,8.68
2022-11-29T04:52:04.188Z,8.52
2022-11-29T04:55:09.304Z,8.40
2022-11-29T04:58:04.272Z,8.93
2022-11-29T05:00:44.540Z,8.25
2022-11-29T05:03:20.376Z,8.63
2022-11-29T05:05:53.749Z,8.40
2022-11-29T05:08:30.613Z,8.60
2022-11-29T05:13:28.516Z,7.90
2022-11-29T05:16:04.646Z,8.10
2022-11-29T05:19:02.975Z,7.70
2022-11-29T05:21:30.399Z,7.72
2022-11-29T05:24:19.221Z,7.88
2022-11-29T05:27:33.207Z,8.10
2022-11-29T05:30:11.481Z,7.55
2022-11-29T05:32:57.815Z,8.68
2022-11-29T05:35:51.526Z,8.18
2022-11-29T05:38:56.270Z,6.95
2022-11-29T05:41:32.474Z,7.45
2022-11-29T05:44:12.089Z,7.60
2022-11-29T05:46:39.549Z,7.18
2022-11-29T05:49:21.093Z,6.97
2022-11-29T05:52:14.492Z,7.40
2022-11-29T05:54:52.340Z,6.85
2022-11-29T05:58:01.935Z,6.90
2022-11-29T06:00:40.011Z,6.60
2022-11-29T06:03:18.345Z,6.82
2022-11-29T06:05:57.495Z,6.70
2022-11-29T06:08:24.841Z,6.88
2022-11-29T06:11:00.717Z,7.28
2022-11-29T06:13:51.087Z,6.17
2022-11-29T06:16:33.994Z,6.43
2022-11-29T06:19:20.017Z,6.60
2022-11-29T06:22:02.635Z,6.47
2022-11-29T06:24:51.819Z,6.50
2022-11-29T06:28:04.853Z,6.20
2022-11-29T06:30:50.781Z,6.47
2022-11-29T06:33:28.075Z,6.95
2022-11-29T06:36:16.625Z,6.75
2022-11-29T06:38:44.253Z,6.10
2022-11-29T06:41:19.834Z,7.28
2022-11-29T06:43:47.820Z,6.50
2022-11-29T06:46:36.892Z,6.75
2022-11-29T06:49:14.281Z,6.07
2022-11-29T06:52:00.752Z,6.30
2022-11-29T06:54:34.253Z,6.67
2022-11-29T06:57:20.423Z,5.85
2022-11-29T07:00:00.053Z,5.93
2022-11-29T07:02:59.533Z,6.95
2022-11-29T07:05:35.131Z,6.60
2022-11-29T07:08:06.373Z,5.90
2022-11-29T07:10:36.814Z,6.28
2022-11-29T07:13:04.863Z,6.50
2022-11-29T07:15:32.629Z,6.03
2022-11-29T07:18:28.598Z,6.10
2022-11-29T07:21:13.473Z,5.85
2022-11-29T07:24:00.086Z,6.93
2022-11-29T07:26:27.449Z,6.85
2022-11-29T07:29:00.887Z,6.70
2022-11-29T07:31:59.388Z,6.22
2022-11-29T07:34:54.665Z,6.53
2022-11-29T07:37:44.786Z,6.18
2022-11-29T07:40:37.418Z,6.40
2022-11-29T07:43:34.894Z,6.43
2022-11-29T07:46:02.383Z,6.63
2022-11-29T07:48:29.845Z,6.47
2022-11-29T07:50:57.563Z,6.65
2022-11-29T07:53:25.156Z,6.30
2022-11-29T07:55:53.212Z,6.57
2022-11-29T07:58:21.087Z,6.47
2022-11-29T08:00:48.665Z,6.45
2022-11-29T08:03:16.259Z,6.07
2022-11-29T08:05:46.461Z,6.57
2022-11-29T08:08:15.104Z,6.05
2022-11-29T08:10:42.563Z,6.50
2022-11-29T08:13:10.066Z,6.00
2022-11-29T08:15:43.193Z,5.93
2022-11-29T08:18:10.665Z,5.85
2022-11-29T08:20:39.260Z,5.82
2022-11-29T08:23:06.805Z,5.80
2022-11-29T08:25:34.456Z,5.50
2022-11-29T08:28:03.002Z,6.07
2022-11-29T08:30:30.427Z,5.85
2022-11-29T08:32:58.368Z,5.82
2022-11-29T08:35:26.069Z,5.63
2022-11-29T08:37:54.708Z,5.70
2022-11-29T08:40:23.082Z,5.82
2022-11-29T08:42:50.684Z,5.82
2022-11-29T08:45:18.274Z,5.47
2022-11-29T08:47:45.799Z,5.53
2022-11-29T08:50:18.201Z,6.00
2022-11-29T08:53:06.539Z,5.50
2022-11-29T08:55:40.661Z,5.60
2022-11-29T08:58:13.897Z,5.30
2022-11-29T09:00:44.230Z,5.45
2022-11-29T09:03:30.269Z,5.35
2022-11-29T09:05:57.892Z,5.70
2022-11-29T09:08:25.507Z,4.95
2022-11-29T09:10:53.446Z,5.07
2022-11-29T09:13:20.892Z,5.90
2022-11-29T09:15:48.499Z,5.47
2022-11-29T09:18:16.052Z,5.72
2022-11-29T09:20:44.822Z,5.50
2022-11-29T09:23:13.237Z,5.28
2022-11-29T09:25:40.898Z,5.20
2022-11-29T09:28:08.645Z,5.57
2022-11-29T09:30:38.022Z,5.78
2022-11-29T09:33:05.634Z,5.20
2022-11-29T09:35:34.691Z,5.10
2022-11-29T09:38:02.133Z,5.35
2022-11-29T09:40:40.112Z,5.47
2022-11-29T09:43:10.514Z,6.38
2022-11-29T09:45:43.144Z,5.68
2022-11-29T09:48:26.774Z,6.38
2022-11-29T09:51:16.995Z,6.40
2022-11-29T09:54:03.152Z,7.88
2022-11-29T09:56:47.205Z,6.53
2022-11-29T09:59:33.658Z,6.50
2022-11-29T10:02:22.840Z,6.67
2022-11-29T10:04:59.155Z,6.88
2022-11-29T10:07:35.256Z,6.70
2022-11-29T10:10:04.936Z,7.32
2022-11-29T10:13:15.747Z,6.25
2022-11-29T10:15:50.457Z,6.95
2022-11-29T10:18:29.370Z,6.30
2022-11-29T10:21:03.572Z,6.13
2022-11-29T10:23:39.028Z,6.22
2022-11-29T10:26:08.132Z,6.78
2022-11-29T10:28:37.163Z,5.82
2022-11-29T10:31:17.038Z,7.10
2022-11-29T10:33:45.247Z,6.68
2022-11-29T10:36:25.888Z,6.15
2022-11-29T10:38:59.298Z,6.55
2022-11-29T10:41:27.117Z,6.50
2022-11-29T10:43:58.561Z,6.47
2022-11-29T10:46:34.252Z,6.50
2022-11-29T10:49:11.795Z,6.15
2022-11-29T10:51:39.310Z,5.97
2022-11-29T10:54:41.686Z,6.60
2022-11-29T10:57:14.911Z,6.55
2022-11-29T10:59:59.333Z,7.25
2022-11-29T11:02:27.917Z,6.38
2022-11-29T11:04:56.365Z,6.20
2022-11-29T11:07:36.096Z,6.85
2022-11-29T11:10:17.414Z,6.65
2022-11-29T11:13:01.489Z,7.00
2022-11-29T11:15:31.115Z,6.60
2022-11-29T11:18:05.013Z,6.80
2022-11-29T11:20:35.420Z,7.00
2022-11-29T11:23:07.956Z,6.65
2022-11-29T11:25:39.177Z,7.28
2022-11-29T11:28:23.145Z,7.07
2022-11-29T11:31:11.395Z,6.82
2022-11-29T11:33:41.789Z,6.70
2022-11-29T11:36:12.434Z,6.30
2022-11-29T11:39:08.989Z,6.60
2022-11-29T11:41:59.601Z,7.32
2022-11-29T11:44:58.423Z,8.15
2022-11-29T11:47:29.067Z,7.70
2022-11-29T11:50:06.852Z,6.82
2022-11-29T11:52:42.042Z,7.85
2022-11-29T11:55:21.441Z,6.95
2022-11-29T11:58:09.339Z,7.28
2022-11-29T12:01:04.409Z,7.47
2022-11-29T12:03:56.796Z,7.63
2022-11-29T12:06:29.978Z,7.00
2022-11-29T12:09:16.491Z,7.47
2022-11-29T12:11:51.366Z,7.80
2022-11-29T12:14:28.589Z,7.85
2022-11-29T12:17:05.194Z,8.07
2022-11-29T12:19:41.857Z,7.50
2022-11-29T12:22:15.368Z,7.68
2022-11-29T12:24:53.040Z,8.50
2022-11-29T12:27:20.582Z,8.93
2022-11-29T12:29:48.070Z,8.63
2022-11-29T12:32:42.835Z,8.95
2022-11-29T12:35:35.116Z,8.50
2022-11-29T12:38:08.804Z,8.40
2022-11-29T12:40:59.463Z,9.20
2022-11-29T12:43:45.340Z,9.13
2022-11-29T12:46:29.311Z,8.90
2022-11-29T12:49:02.818Z,9.18
2022-11-29T12:51:57.912Z,8.50
2022-11-29T12:54:28.212Z,8.90
2022-11-29T12:57:23.747Z,9.35
2022-11-29T13:00:17.772Z,9.45
2022-11-29T13:02:53.474Z,9.50
2022-11-29T13:05:33.944Z,8.77
2022-11-29T13:08:04.457Z,9.27
2022-11-29T13:10:35.842Z,9.20
2022-11-29T13:13:16.669Z,10.00
2022-11-29T13:15:44.106Z,9.82
2022-11-29T13:18:24.193Z,9.48
2022-11-29T13:20:56.377Z,9.20
2022-11-29T13:26:38.623Z,8.88
2022-11-29T13:29:07.757Z,8.70
2022-11-29T13:31:36.713Z,8.55
2022-11-29T13:34:13.245Z,8.77
2022-11-29T13:36:43.575Z,8.75
2022-11-29T13:39:16.716Z,9.27
2022-11-29T13:42:10.468Z,9.20
2022-11-29T13:44:51.941Z,9.30
2022-11-29T13:47:20.123Z,8.82
2022-11-29T13:50:07.433Z,9.25
2022-11-29T13:55:12.895Z,8.70
2022-11-29T13:58:15.025Z,9.65
2022-11-29T14:00:51.217Z,9.10
2022-11-29T14:03:19.095Z,8.75
2022-11-29T14:05:49.658Z,9.10
2022-11-29T14:08:25.065Z,8.35
2022-11-29T14:10:55.681Z,8.85
2022-11-29T14:13:31.267Z,8.40
2022-11-29T14:16:01.979Z,8.73
2022-11-29T14:18:38.281Z,9.13
2022-11-29T14:21:05.861Z,8.65
2022-11-29T14:23:41.372Z,8.57
2022-11-29T14:26:08.852Z,8.85
2022-11-29T14:28:39.223Z,9.02
2022-11-29T14:31:10.676Z,9.05
2022-11-29T14:33:47.235Z,9.13
2022-11-29T14:36:14.589Z,8.77
2022-11-29T14:38:55.741Z,8.98
2022-11-29T14:41:56.793Z,8.43
2022-11-29T14:44:28.253Z,8.98
2022-11-29T14:47:24.467Z,9.45
2022-11-29T14:49:54.205Z,8.77
2022-11-29T14:52:32.095Z,8.45
2022-11-29T14:55:06.107Z,8.85
2022-11-29T14:58:01.172Z,9.02
2022-11-29T15:00:34.826Z,8.80
2022-11-29T15:03:17.581Z,8.55
2022-11-29T15:05:46.683Z,8.90
2022-11-29T15:08:19.217Z,9.02
2022-11-29T15:10:54.143Z,9.05
2022-11-29T15:13:35.994Z,9.13
2022-11-29T15:16:24.666Z,8.70
2022-11-29T15:18:59.252Z,8.80
2022-11-29T15:21:29.664Z,8.50
2022-11-29T15:24:08.831Z,9.18
2022-11-29T15:26:36.407Z,8.77
2022-11-29T15:29:19.571Z,8.40
2022-11-29T15:32:04.864Z,9.50
2022-11-29T15:34:39.713Z,8.65
2022-11-29T15:37:12.736Z,9.15
2022-11-29T15:39:40.289Z,8.70
2022-11-29T15:42:12.988Z,8.70
2022-11-29T15:44:48.057Z,8.90
2022-11-29T15:47:24.540Z,8.63
2022-11-29T15:49:53.819Z,9.13
2022-11-29T15:52:27.354Z,8.80
2022-11-29T15:55:00.561Z,9.20
2022-11-29T15:57:36.149Z,8.95
2022-11-29T16:02:40.386Z,9.32
2022-11-29T16:05:37.251Z,8.93
2022-11-29T16:08:12.359Z,9.13
2022-11-29T16:10:47.389Z,8.90
2022-11-29T16:13:35.371Z,9.70
2022-11-29T16:16:17.264Z,9.10
2022-11-29T16:18:46.781Z,9.52
2022-11-29T16:21:32.733Z,9.43
2022-11-29T16:24:12.908Z,9.63
2022-11-29T16:26:44.223Z,9.63
2022-11-29T16:29:26.969Z,8.90
2022-11-29T16:31:55.022Z,9.82
2022-11-29T16:34:27.558Z,9.30
2022-11-29T16:37:07.380Z,9.02
2022-11-29T16:39:37.957Z,9.43
2022-11-29T16:42:25.937Z,9.90
2022-11-29T16:44:56.573Z,10.27
2022-11-29T16:47:26.467Z,9.75
2022-11-29T16:50:03.233Z,10.02
2022-11-29T16:52:32.995Z,10.70
2022-11-29T16:55:00.789Z,10.23
2022-11-29T16:57:29.347Z,9.80
2022-11-29T16:59:56.763Z,10.57
2022-11-29T17:02:24.293Z,9.73
2022-11-29T17:04:51.957Z,10.55
2022-11-29T17:07:39.434Z,10.35
2022-11-29T17:10:11.902Z,10.35
2022-11-29T17:12:42.237Z,10.15
2022-11-29T17:15:14.024Z,10.27
2022-11-29T17:17:43.303Z,10.00
2022-11-29T17:20:12.728Z,9.90
2022-11-29T17:22:41.358Z,9.88
2022-11-29T17:25:09.770Z,9.60
2022-11-29T17:27:37.839Z,9.70
2022-11-29T17:30:06.703Z,9.35
2022-11-29T17:32:35.858Z,9.75
2022-11-29T17:35:03.765Z,9.75
2022-11-29T17:37:31.866Z,10.98
2022-11-29T17:39:59.576Z,10.23
2022-11-29T17:42:27.130Z,9.95
2022-11-29T17:44:54.569Z,10.43
2022-11-29T17:47:22.099Z,9.75
2022-11-29T17:49:49.525Z,9.77
2022-11-29T17:52:16.979Z,9.75
2022-11-29T17:54:44.399Z,10.25
2022-11-29T17:57:11.985Z,10.48
2022-11-29T17:59:39.490Z,8.77
2022-11-29T18:02:07.082Z,9.52
2022-11-29T18:04:34.513Z,9.85
2022-11-29T18:07:01.923Z,9.40
2022-11-29T18:09:29.588Z,9.68
2022-11-29T18:11:57.038Z,9.13
2022-11-29T18:14:28.078Z,9.48
2022-11-29T18:16:55.751Z,9.88
2022-11-29T18:19:23.816Z,9.30
2022-11-29T18:21:51.756Z,9.20
2022-11-29T18:24:19.771Z,9.55
2022-11-29T18:26:47.393Z,10.02
2022-11-29T18:29:15.208Z,11.43
2022-11-29T18:31:44.592Z,10.35
2022-11-29T18:34:13.789Z,9.70
2022-11-29T18:36:47.296Z,9.75
2022-11-29T18:39:17.628Z,9.98
2022-11-29T18:41:47.734Z,10.57
2022-11-29T18:44:17.550Z,10.00
2022-11-29T18:46:46.809Z,9.38
2022-11-29T18:49:16.503Z,9.45
2022-11-29T18:51:45.941Z,9.73
2022-11-29T18:54:16.629Z,10.02
2022-11-29T18:56:45.587Z,9.10
2022-11-29T18:59:17.040Z,9.88
2022-11-29T19:01:47.649Z,9.98
2022-11-29T19:04:20.588Z,10.40
2022-11-29T19:06:48.441Z,9.95
2022-11-29T19:09:20.996Z,9.63
2022-11-29T19:11:51.667Z,10.00
2022-11-29T19:14:21.018Z,9.80
2022-11-29T19:16:50.167Z,10.75
2022-11-29T19:19:19.124Z,10.48
2022-11-29T19:21:46.917Z,9.82
2022-11-29T19:24:15.763Z,10.15
2022-11-29T19:26:45.779Z,10.27
2022-11-29T19:29:14.365Z,10.70
2022-11-29T19:31:42.713Z,10.20
2022-11-29T19:34:10.943Z,10.32
2022-11-29T19:36:43.141Z,10.68
2022-11-29T19:39:13.398Z,10.10
2022-11-29T19:41:43.912Z,10.43
2022-11-29T19:44:11.867Z,9.98
2022-11-29T19:46:45.986Z,10.48
2022-11-29T19:49:13.616Z,9.80
2022-11-29T19:51:41.442Z,10.48
2022-11-29T19:54:10.278Z,10.07
2022-11-29T19:56:38.915Z,9.88
2022-11-29T19:59:07.611Z,10.18
2022-11-29T20:01:40.784Z,10.50
2022-11-29T20:04:10.890Z,9.88
2022-11-29T20:06:39.223Z,10.27
2022-11-29T20:09:07.160Z,9.90
2022-11-29T20:11:35.038Z,10.50
2022-11-29T20:14:04.272Z,10.25
2022-11-29T20:16:32.435Z,9.85
2022-11-29T20:18:59.987Z,9.52
2022-11-29T20:21:32.706Z,9.85
2022-11-29T20:24:03.630Z,9.15
2022-11-29T20:26:33.489Z,9.45
2022-11-29T20:29:02.190Z,9.88
2022-11-29T20:31:30.224Z,9.40
2022-11-29T20:33:57.970Z,9.13
2022-11-29T20:37:05.781Z,9.35
2022-11-29T20:39:58.276Z,9.25
2022-11-29T20:42:56.868Z,9.25
2022-11-29T20:45:25.517Z,8.98
2022-11-29T20:47:58.679Z,9.85
2022-11-29T20:50:28.940Z,9.10
2022-11-29T20:52:59.619Z,9.70
2022-11-29T20:55:27.136Z,9.80
2022-11-29T20:57:55.837Z,9.02
2022-11-29T21:00:23.886Z,9.32
2022-11-29T21:02:51.602Z,9.30
2022-11-29T21:05:19.592Z,9.48
2022-11-29T21:07:47.357Z,9.05
2022-11-29T21:10:15.566Z,9.07
2022-11-29T21:12:45.834Z,9.95
2022-11-29T21:15:14.995Z,8.60
2022-11-29T21:17:43.348Z,9.23
2022-11-29T21:20:20.891Z,9.52
2022-11-29T21:23:08.836Z,9.25
2022-11-29T21:25:58.260Z,9.27
2022-11-29T21:28:34.393Z,8.68
2022-11-29T21:31:02.208Z,9.20
2022-11-29T21:33:29.951Z,8.68
2022-11-29T21:35:58.278Z,9.35
2022-11-29T21:38:27.087Z,8.80
2022-11-29T21:40:54.681Z,9.68
2022-11-29T21:43:28.742Z,9.02
2022-11-29T21:48:37.983Z,9.00
2022-11-29T21:51:07.229Z,9.88
2022-11-29T21:53:36.816Z,9.45
2022-11-29T21:56:06.975Z,9.73
2022-11-29T21:58:36.240Z,9.60
2022-11-29T22:01:12.458Z,9.30
2022-11-29T22:03:40.835Z,9.60
2022-11-29T22:06:10.902Z,9.70
2022-11-29T22:08:40.228Z,9.68
2022-11-29T22:11:10.740Z,9.48
2022-11-29T22:13:59.939Z,9.82
2022-11-29T22:16:28.513Z,10.27
2022-11-29T22:18:56.010Z,9.52
2022-11-29T22:21:24.543Z,9.60
2022-11-29T22:23:52.814Z,10.30
2022-11-29T22:26:22.028Z,10.20
2022-11-29T22:28:49.536Z,10.25
2022-11-29T22:31:17.125Z,10.50
2022-11-29T22:33:44.549Z,10.23
2022-11-29T22:36:13.413Z,10.55
2022-11-29T22:38:40.901Z,10.23
2022-11-29T22:41:11.125Z,9.70
2022-11-29T22:43:40.449Z,10.15
2022-11-29T22:46:10.764Z,10.25
2022-11-29T22:48:39.546Z,10.55
2022-11-29T22:51:11.661Z,10.90
2022-11-29T22:53:41.893Z,10.57
2022-11-29T22:56:10.959Z,10.82
2022-11-29T22:58:38.822Z,10.18
2022-11-29T23:01:09.549Z,10.70
2022-11-29T23:03:39.150Z,11.02
2022-11-29T23:06:11.717Z,9.98
2022-11-29T23:08:40.566Z,10.63
2022-11-29T23:11:11.127Z,10.93
2022-11-29T23:13:41.070Z,10.50
2022-11-29T23:16:11.558Z,11.43
2022-11-29T23:18:40.054Z,10.90
2022-11-29T23:21:10.469Z,10.63
2022-11-29T23:23:38.446Z,11.23
2022-11-29T23:26:08.179Z,11.20
2022-11-29T23:28:36.171Z,11.25
2022-11-29T23:31:03.662Z,11.38
2022-11-29T23:33:31.061Z,11.55
2022-11-29T23:36:05.029Z,11.40
2022-11-29T23:38:33.551Z,10.82
2022-11-29T23:41:01.192Z,10.88
2022-11-29T23:43:30.269Z,11.38
2022-11-29T23:45:58.322Z,10.98
2022-11-29T23:48:26.186Z,10.80
2022-11-29T23:50:53.912Z,11.77
2022-11-29T23:53:21.471Z,11.10
2022-11-29T23:56:00.771Z,12.05
2022-11-29T23:58:29.745Z,10.63
